METAR Data
IDs: Format: Raw Decoded Include TAF

Data at: 1347 UTC 10 Jul 2020

METAR for:LEBZ (Badajoz Arpt, --, SP)
Text:LEBZ 101300Z 35005KT 290V050 CAVOK 35/14 Q1013
Temperature: 35.0°C ( 95°F)
Dewpoint: 14.0°C ( 57°F) [RH = 28%]
Pressure (altimeter):29.91 inches Hg (1013.0 mb)
Winds:from the N (350 degrees) at 6 MPH (5 knots; 2.6 m/s)
Visibility:6 or more sm (10+ km)
Ceiling:ceiling and visibility are OK
Clouds:unknown

TAF for:LEBZ (Badajoz Arpt, --, SP) issued at 1100 UTC 10 Jul 2020
Text:TAF LEBZ 101100Z 1012/1112 04004KT CAVOK TX39/1016Z TN21/1105Z
Forecast period:1200 UTC 10 July 2020 to 1200 UTC 11 July 2020
Forecast type:FROM: standard forecast or significant change
Winds:from the NE (40 degrees) at 5 MPH (4 knots; 2.1 m/s)
Visibility:6 or more sm (10+ km)
Clouds:missing
Text:PROB40
Forecast period:2000 UTC 10 July 2020 to 0000 UTC 11 July 2020
Forecast type:TEMPORARY: The following changes expected for less than half the time period
Winds:from the WNW (290 degrees) at 12 MPH (10 knots; 5.1 m/s)
Clouds:missing